»·PEaware :: N256Z KFLG-KTNP

N256Z :: KFLG-KTNP

FLIGHT INFORMATION

Flight Status: Arrived
Operator: Privately registered:
United States
More flights under this callsign
Pilot: Gregory A. (9731)
Aircraft: PIPER PA-46-500TP MALIBU MERIDIAN
(P46T)
More flights by this aircraft type
Origin: KFLG Flagstaff Pulliam
United States
Destination: KTNP Twentynine Palms
United States
More flights between these airports :: More routes between these airports
Route: +FLG1 OATES DRK J231 HIPPI J10 TNP
File this flight plan on PilotEdge
Remarks:
Altitude:
(Current/Filed)
300ft
Speed:
(Current/Filed)
274kts
Departed: 24-Jul-18 08:16 AM
Arrived: 24-Jul-18 09:29 AM
Distance/Time
Traveled:
219nm/1:13
Distance/Time
To Go:
Arrived

Flight Plot

Page will automatically refresh every two minutes.

Flight plan parsing failed; only flown route is shown


Map Options




Map Legend


Flown Route
Filed Route
Departure Airport
Arrival Airport
Navaid (VOR, NDB)
Fix

Horizontal Profiles

Position Reports

Time Latitude Longitude Heading Altitude Ground
Speed
24-Jul-18 07:50 35.135275 -111.677053 218 7015ft 0kts
24-Jul-18 07:51 35.135275 -111.677053 218 7015ft 0kts
24-Jul-18 07:52 35.135275 -111.677053 218 7015ft 0kts
24-Jul-18 07:53 35.135275 -111.677053 218 7015ft 0kts
24-Jul-18 07:54 35.135274 -111.677054 217 7015ft 0kts
24-Jul-18 07:55 35.135272 -111.677055 217 7015ft 0kts
24-Jul-18 07:56 35.135271 -111.677057 217 7015ft 0kts
24-Jul-18 07:57 35.135270 -111.677058 217 7015ft 0kts
24-Jul-18 07:58 35.135268 -111.677060 217 7015ft 0kts
24-Jul-18 07:59 35.135267 -111.677061 217 7015ft 0kts
24-Jul-18 08:00 35.135265 -111.677062 217 7015ft 0kts
24-Jul-18 08:01 35.135264 -111.677064 217 7015ft 0kts
24-Jul-18 08:02 35.135262 -111.677065 217 7015ft 0kts
24-Jul-18 08:03 35.135261 -111.677067 217 7015ft 0kts
24-Jul-18 08:04 35.135259 -111.677068 217 7015ft 0kts
24-Jul-18 08:05 35.135258 -111.677069 217 7015ft 0kts
24-Jul-18 08:06 35.135257 -111.677071 217 7015ft 0kts
24-Jul-18 08:07 35.135255 -111.677072 217 7015ft 0kts
24-Jul-18 08:08 35.135254 -111.677073 217 7015ft 0kts
24-Jul-18 08:09 35.135253 -111.677074 217 7015ft 0kts
24-Jul-18 08:10 35.135251 -111.677076 217 7015ft 0kts
24-Jul-18 08:11 35.134908 -111.676722 70 7015ft 10kts
24-Jul-18 08:12 35.138952 -111.672430 38 7015ft 24kts
24-Jul-18 08:13 35.144214 -111.666877 39 7015ft 25kts
24-Jul-18 08:14 35.149661 -111.661064 37 7015ft 16kts
24-Jul-18 08:15 35.149926 -111.660337 123 7015ft 0kts
24-Jul-18 08:16 35.149908 -111.660310 132 7015ft 2kts
24-Jul-18 08:17 35.141613 -111.668025 224 7015ft 111kts
24-Jul-18 08:18 35.109227 -111.680282 159 8572ft 160kts
24-Jul-18 08:19 35.060372 -111.683722 189 10247ft 194kts
24-Jul-18 08:20 35.006828 -111.690033 192 12440ft 187kts
24-Jul-18 08:21 34.952906 -111.697596 192 14164ft 196kts
24-Jul-18 08:22 34.897580 -111.705441 192 16167ft 200kts
24-Jul-18 08:23 34.862452 -111.745564 254 18185ft 189kts
24-Jul-18 08:24 34.849101 -111.807173 255 20180ft 185kts
24-Jul-18 08:25 34.835681 -111.869699 255 22045ft 199kts
24-Jul-18 08:26 34.821376 -111.935932 255 23651ft 204kts
24-Jul-18 08:27 34.806801 -112.003248 255 25251ft 206kts
24-Jul-18 08:28 34.792192 -112.070653 255 26851ft 203kts
24-Jul-18 08:29 34.777878 -112.136297 255 28444ft 198kts
24-Jul-18 08:30 34.764002 -112.199814 255 30018ft 192kts
24-Jul-18 08:31 34.748971 -112.268592 255 30240ft 224kts
24-Jul-18 08:32 34.732478 -112.343909 255 30235ft 234kts
24-Jul-18 08:33 34.715503 -112.421075 255 30236ft 236kts
24-Jul-18 08:34 34.701117 -112.499024 260 30236ft 237kts
24-Jul-18 08:35 34.691133 -112.578176 260 30108ft 240kts
24-Jul-18 08:36 34.681221 -112.660906 260 29425ft 251kts
24-Jul-18 08:37 34.671196 -112.745594 261 28728ft 255kts
24-Jul-18 08:38 34.661042 -112.830617 260 28234ft 251kts
24-Jul-18 08:39 34.651186 -112.912920 260 28224ft 242kts
24-Jul-18 08:40 34.641483 -112.993509 260 28204ft 240kts
24-Jul-18 08:41 34.631770 -113.073738 260 28196ft 240kts
24-Jul-18 08:42 34.621986 -113.154143 260 28188ft 240kts
24-Jul-18 08:43 34.612184 -113.234258 260 28181ft 240kts
24-Jul-18 08:44 34.600698 -113.327927 260 28174ft 239kts
24-Jul-18 08:45 34.592511 -113.394283 260 28168ft 238kts
24-Jul-18 08:46 34.582577 -113.474044 260 28163ft 240kts
24-Jul-18 08:47 34.572570 -113.554483 260 28157ft 241kts
24-Jul-18 08:48 34.561768 -113.634494 256 28155ft 240kts
24-Jul-18 08:49 34.546515 -113.713508 255 27925ft 244kts
24-Jul-18 08:50 34.530232 -113.794270 255 27426ft 245kts
24-Jul-18 08:51 34.513957 -113.874359 254 26926ft 245kts
24-Jul-18 08:52 34.497499 -113.954944 254 26426ft 246kts
24-Jul-18 08:53 34.480980 -114.035703 254 25927ft 248kts
24-Jul-18 08:54 34.464224 -114.116979 254 25428ft 249kts
24-Jul-18 08:55 34.447299 -114.199011 253 24932ft 250kts
24-Jul-18 08:56 34.429397 -114.280195 251 24487ft 249kts
24-Jul-18 08:57 34.412501 -114.361421 253 24014ft 249kts
24-Jul-18 08:58 34.395734 -114.443300 253 23536ft 250kts
24-Jul-18 08:59 34.378967 -114.525020 253 23077ft 251kts
24-Jul-18 09:00 34.361972 -114.606158 253 22615ft 244kts
24-Jul-18 09:01 34.346044 -114.682436 254 22129ft 220kts
24-Jul-18 09:02 34.331198 -114.752139 252 21588ft 213kts
24-Jul-18 09:03 34.315597 -114.823275 254 20638ft 222kts
24-Jul-18 09:04 34.299677 -114.896542 254 19680ft 227kts
24-Jul-18 09:05 34.285713 -114.965589 254 18675ft 195kts
24-Jul-18 09:06 34.272904 -115.025665 253 17676ft 178kts
24-Jul-18 09:07 34.260468 -115.082603 252 16688ft 173kts
24-Jul-18 09:08 34.249243 -115.137261 253 16206ft 155kts
24-Jul-18 09:09 34.239349 -115.183135 253 16213ft 129kts
24-Jul-18 09:10 34.230851 -115.223225 252 16217ft 116kts
24-Jul-18 09:11 34.220263 -115.271109 253 16236ft 181kts
24-Jul-18 09:12 34.206645 -115.333807 253 16225ft 202kts
24-Jul-18 09:13 34.191801 -115.399997 254 15384ft 187kts
24-Jul-18 09:14 34.179993 -115.456433 254 14168ft 165kts
24-Jul-18 09:15 34.168199 -115.511399 254 12642ft 173kts
24-Jul-18 09:16 34.155793 -115.568339 254 11041ft 175kts
24-Jul-18 09:17 34.143325 -115.625506 254 9451ft 177kts
24-Jul-18 09:18 34.130848 -115.682708 254 7847ft 175kts
24-Jul-18 09:19 34.119220 -115.736420 254 6911ft 154kts
24-Jul-18 09:20 34.102211 -115.790142 235 6260ft 181kts
24-Jul-18 09:21 34.063991 -115.777491 91 5582ft 191kts
24-Jul-18 09:22 34.071969 -115.714989 86 5116ft 181kts
24-Jul-18 09:23 34.103407 -115.685393 336 4828ft 146kts
24-Jul-18 09:24 34.116317 -115.721719 246 4855ft 128kts
24-Jul-18 09:25 34.112070 -115.763158 269 4866ft 116kts
24-Jul-18 09:26 34.114828 -115.804213 279 4843ft 128kts
24-Jul-18 09:27 34.121480 -115.849053 279 4181ft 133kts
24-Jul-18 09:28 34.127903 -115.892196 281 3091ft 126kts
24-Jul-18 09:29 34.134455 -115.932842 268 1875ft 100kts
24-Jul-18 09:30 34.135206 -115.942165 271 1847ft 12kts
24-Jul-18 09:31 34.135840 -115.945269 352 1847ft 9kts
24-Jul-18 09:32 34.135365 -115.944311 28 1847ft 10kts
24-Jul-18 09:33 34.135662 -115.944317 357 1847ft 0kts

Navigation Log

Ident Type
Flight plan parsing failed, navigation log unavailable